Time;durP1;ratioP1;P1;durP2;ratioP2;P2;SDS_P1;SDS_P2;PMS_P1;PMS_P2;Temp;Humidity;BMP_temperature;BMP_pressure;BME280_temperature;BME280_humidity;BME280_pressure;Samples;Min_cycle;Max_cycle;Signal;HPM_P1;HPM_P2
2024/01/31 00:01:57;;;;;;;119.53;113.38;;;8.90;99.90;;;;;;5029987;28;20633;-73
2024/01/31 00:04:23;;;;;;;109.78;103.93;;;9.00;99.90;;;;;;5031126;28;20045;-72
2024/01/31 00:06:50;;;;;;;116.80;110.65;;;9.10;99.90;;;;;;5030926;28;20434;-73
2024/01/31 00:09:16;;;;;;;112.45;106.63;;;9.10;99.90;;;;;;5030461;28;20057;-73
2024/01/31 00:11:42;;;;;;;112.18;106.30;;;9.20;99.90;;;;;;5030839;28;20038;-73
2024/01/31 00:14:08;;;;;;;109.03;103.38;;;9.20;99.90;;;;;;5030792;28;20045;-73
2024/01/31 00:16:34;;;;;;;114.95;109.10;;;9.10;99.90;;;;;;5027851;28;20402;-73
2024/01/31 00:19:01;;;;;;;121.75;115.35;;;9.10;99.90;;;;;;5024826;28;20042;-73
2024/01/31 00:21:27;;;;;;;121.68;115.40;;;9.20;99.90;;;;;;5031024;28;20030;-73
2024/01/31 00:23:53;;;;;;;124.30;117.80;;;9.20;99.90;;;;;;5029987;28;20414;-73
2024/01/31 00:26:19;;;;;;;121.47;115.32;;;9.20;99.90;;;;;;5024755;28;20073;-73
2024/01/31 00:28:45;;;;;;;113.05;107.25;;;9.30;99.90;;;;;;5030186;28;20049;-73
2024/01/31 00:31:11;;;;;;;119.05;112.63;;;9.30;99.90;;;;;;5029468;28;20375;-73
2024/01/31 00:33:38;;;;;;;137.52;130.52;;;9.30;99.90;;;;;;5030332;28;20044;-73
2024/01/31 00:36:05;;;;;;;148.05;140.48;;;9.10;99.90;;;;;;5030035;28;20267;-72
2024/01/31 00:38:31;;;;;;;150.60;142.68;;;9.00;99.90;;;;;;5030290;28;20104;-73
2024/01/31 00:40:57;;;;;;;124.97;118.72;;;8.80;99.90;;;;;;5017954;28;20049;-73
2024/01/31 00:43:23;;;;;;;124.65;118.25;;;8.70;99.90;;;;;;5030784;28;20576;-73
2024/01/31 00:45:49;;;;;;;166.85;158.38;;;8.60;99.90;;;;;;5029888;28;20052;-73
2024/01/31 00:48:15;;;;;;;179.43;170.15;;;8.60;99.90;;;;;;5031396;28;20040;-73
2024/01/31 00:50:41;;;;;;;179.48;170.30;;;8.60;99.90;;;;;;5061219;28;20034;-73
2024/01/31 00:53:07;;;;;;;126.75;120.18;;;8.80;99.90;;;;;;5035093;28;20034;-73
2024/01/31 00:55:34;;;;;;;117.28;111.03;;;8.80;99.90;;;;;;5033881;28;20060;-73
2024/01/31 00:58:00;;;;;;;155.40;147.45;;;8.70;99.90;;;;;;5034103;28;20046;-73
2024/01/31 01:00:26;;;;;;;149.23;141.52;;;8.70;99.90;;;;;;5033450;28;20025;-73
2024/01/31 01:02:53;;;;;;;151.23;143.45;;;8.90;99.90;;;;;;5035111;28;20061;-73
2024/01/31 01:05:20;;;;;;;144.75;137.20;;;9.00;99.90;;;;;;5033595;28;20036;-73
2024/01/31 01:07:46;;;;;;;145.73;138.18;;;9.20;99.90;;;;;;5033873;28;20034;-73
2024/01/31 01:10:12;;;;;;;164.68;155.90;;;9.20;99.90;;;;;;5056042;28;20049;-73
2024/01/31 01:12:39;;;;;;;155.05;146.98;;;9.10;99.90;;;;;;5034790;28;20489;-73
2024/01/31 01:15:08;;;;;;;135.77;128.60;;;9.20;99.90;;;;;;5032580;28;20442;-73
2024/01/31 01:17:38;;;;;;;144.65;137.02;;;9.10;99.90;;;;;;5033072;28;20478;-73
2024/01/31 01:20:06;;;;;;;123.30;116.85;;;9.10;99.90;;;;;;5048393;28;20046;-73
2024/01/31 01:22:32;;;;;;;105.50;99.68;;;9.20;99.90;;;;;;5015343;28;20041;-73
2024/01/31 01:24:58;;;;;;;105.75;100.07;;;9.20;99.90;;;;;;5014644;28;20038;-73
2024/01/31 01:27:24;;;;;;;101.95;96.65;;;9.10;99.90;;;;;;5029412;28;20029;-73
2024/01/31 01:29:50;;;;;;;105.70;100.20;;;9.10;99.90;;;;;;5033789;28;20036;-73
2024/01/31 01:32:17;;;;;;;112.18;106.05;;;9.10;99.90;;;;;;5031904;28;20034;-73
2024/01/31 01:34:43;;;;;;;100.53;95.03;;;9.00;99.90;;;;;;5034295;28;20029;-73
2024/01/31 01:37:09;;;;;;;103.53;98.03;;;9.10;99.90;;;;;;5033518;28;20040;-73
2024/01/31 01:39:35;;;;;;;106.88;101.47;;;9.10;99.90;;;;;;5032120;28;20040;-73
2024/01/31 01:42:01;;;;;;;136.48;129.48;;;9.10;99.90;;;;;;5032695;28;20049;-73
2024/01/31 01:44:32;;;;;;;155.02;146.88;;;8.90;99.90;;;;;;5033343;28;20046;-73
2024/01/31 01:47:02;;;;;;;134.18;127.30;;;8.70;99.90;;;;;;5032599;28;20030;-73
2024/01/31 01:49:31;;;;;;;108.00;102.35;;;8.60;99.90;;;;;;5062678;28;20042;-73
2024/01/31 01:51:58;;;;;;;111.65;105.82;;;8.60;99.90;;;;;;5026690;28;20029;-73
2024/01/31 01:54:24;;;;;;;108.20;102.65;;;8.70;99.90;;;;;;5064858;28;20033;-73
2024/01/31 01:56:50;;;;;;;94.28;89.47;;;8.70;99.90;;;;;;5062561;28;20529;-73
2024/01/31 01:59:16;;;;;;;96.35;91.22;;;8.80;99.90;;;;;;5019360;28;20022;-73
2024/01/31 02:01:42;;;;;;;99.50;94.10;;;8.90;99.90;;;;;;5022936;28;20030;-73
2024/01/31 02:04:08;;;;;;;100.63;95.35;;;9.00;99.90;;;;;;5032206;28;20041;-73
2024/01/31 02:06:34;;;;;;;100.50;94.95;;;9.10;99.90;;;;;;5032712;28;20029;-73
2024/01/31 02:09:00;;;;;;;95.20;90.18;;;9.20;99.90;;;;;;5020320;28;20471;-73
2024/01/31 02:11:26;;;;;;;103.40;98.07;;;9.10;99.90;;;;;;5026977;28;20044;-73
2024/01/31 02:13:52;;;;;;;105.47;99.78;;;9.00;99.90;;;;;;5032492;28;20049;-73
2024/01/31 02:16:19;;;;;;;98.70;93.53;;;9.10;99.90;;;;;;5032631;28;20041;-73
2024/01/31 02:18:45;;;;;;;98.32;93.32;;;9.10;99.90;;;;;;5032755;28;20368;-73
2024/01/31 02:21:11;;;;;;;94.28;89.32;;;9.20;99.90;;;;;;5031510;28;20033;-73
2024/01/31 02:23:37;;;;;;;100.80;95.65;;;9.30;99.90;;;;;;5018124;28;20041;-73
2024/01/31 02:26:03;;;;;;;96.70;91.70;;;9.40;99.90;;;;;;5023611;28;20068;-73
2024/01/31 02:28:29;;;;;;;109.82;103.97;;;9.40;99.90;;;;;;5016426;28;20044;-73
2024/01/31 02:30:56;;;;;;;108.68;102.93;;;9.50;99.90;;;;;;5031642;28;20041;-73
2024/01/31 02:33:22;;;;;;;105.50;99.97;;;9.50;99.90;;;;;;5032293;28;20025;-73
2024/01/31 02:35:48;;;;;;;100.75;95.47;;;9.40;99.90;;;;;;5031468;28;20041;-73
2024/01/31 02:38:15;;;;;;;109.05;103.30;;;9.40;99.90;;;;;;5032592;28;20041;-73
2024/01/31 02:40:41;;;;;;;108.72;103.07;;;9.30;99.90;;;;;;5029523;28;20046;-73
2024/01/31 02:43:07;;;;;;;122.60;116.05;;;9.30;99.90;;;;;;5033007;28;20032;-73
2024/01/31 02:45:35;;;;;;;116.78;110.82;;;9.40;99.90;;;;;;5030951;28;20044;-73
2024/01/31 02:48:01;;;;;;;135.40;128.27;;;9.40;99.90;;;;;;5031850;28;20045;-73
2024/01/31 02:50:30;;;;;;;153.10;145.20;;;9.50;99.90;;;;;;5032426;28;20048;-73
2024/01/31 02:52:56;;;;;;;141.65;134.30;;;9.50;99.90;;;;;;5031808;28;20060;-73
2024/01/31 02:55:22;;;;;;;155.35;146.95;;;9.50;99.90;;;;;;5064287;28;20033;-73
2024/01/31 02:57:48;;;;;;;189.85;179.88;;;9.50;99.90;;;;;;5030265;28;20038;-73
2024/01/31 03:00:15;;;;;;;192.82;182.73;;;9.40;99.90;;;;;;5030376;28;20026;-73
2024/01/31 03:02:43;;;;;;;196.73;186.20;;;9.20;99.90;;;;;;5027602;28;20033;-73
2024/01/31 03:05:11;;;;;;;189.50;179.52;;;9.10;99.90;;;;;;5024554;28;20049;-73
2024/01/31 03:07:37;;;;;;;161.80;153.23;;;9.00;99.90;;;;;;5027425;28;20061;-73
2024/01/31 03:10:03;;;;;;;179.45;169.90;;;9.00;99.90;;;;;;5030220;28;20907;-73
2024/01/31 03:12:29;;;;;;;178.68;169.07;;;8.80;99.90;;;;;;5029668;28;20034;-72
2024/01/31 03:14:56;;;;;;;135.20;128.15;;;8.80;99.90;;;;;;5029825;28;20029;-73
2024/01/31 03:17:22;;;;;;;135.27;128.18;;;8.90;99.90;;;;;;5029395;28;20359;-73
2024/01/31 03:19:48;;;;;;;134.57;127.43;;;8.80;99.90;;;;;;5028803;28;20048;-73
2024/01/31 03:22:14;;;;;;;99.38;94.10;;;8.70;99.90;;;;;;5030264;28;20426;-73
2024/01/31 03:24:40;;;;;;;92.22;87.40;;;8.80;99.90;;;;;;5027475;28;20049;-73
2024/01/31 03:27:06;;;;;;;92.18;87.30;;;8.90;99.90;;;;;;5030605;28;20040;-73
2024/01/31 03:29:32;;;;;;;123.55;117.00;;;9.00;99.90;;;;;;5028608;28;20060;-73
2024/01/31 03:31:58;;;;;;;127.05;120.53;;;9.10;99.90;;;;;;5029680;28;20037;-73
2024/01/31 03:34:25;;;;;;;95.80;90.55;;;9.20;99.90;;;;;;5027717;28;20037;-72
2024/01/31 03:36:51;;;;;;;87.28;82.65;;;9.20;99.90;;;;;;5022712;28;20040;-73
2024/01/31 03:39:19;;;;;;;91.85;87.05;;;9.20;99.90;;;;;;5029194;28;20445;-73
2024/01/31 03:41:45;;;;;;;103.60;98.18;;;9.10;99.90;;;;;;5030403;28;20045;-72
2024/01/31 03:44:13;;;;;;;110.70;104.90;;;9.10;99.90;;;;;;5062590;28;20494;-73
2024/01/31 03:46:39;;;;;;;99.75;94.53;;;9.20;99.90;;;;;;5031406;28;20379;-73
2024/01/31 03:49:05;;;;;;;95.97;90.88;;;9.30;99.90;;;;;;5031021;28;20042;-72
2024/01/31 03:51:31;;;;;;;84.40;79.97;;;9.40;99.90;;;;;;5029980;28;20030;-73
2024/01/31 03:53:58;;;;;;;140.70;133.15;;;9.30;99.90;;;;;;5032035;28;20025;-73
2024/01/31 03:56:24;;;;;;;157.63;149.38;;;9.20;99.90;;;;;;5030642;28;20029;-73
2024/01/31 03:58:50;;;;;;;114.15;108.18;;;9.20;99.90;;;;;;5030108;28;20056;-73
2024/01/31 04:01:16;;;;;;;147.50;139.65;;;9.10;99.90;;;;;;5029258;28;20245;-73
2024/01/31 04:03:44;;;;;;;141.77;134.43;;;9.10;99.90;;;;;;5022388;28;20060;-73
2024/01/31 04:06:10;;;;;;;155.18;147.02;;;9.00;99.90;;;;;;5030882;28;20479;-73
2024/01/31 04:08:36;;;;;;;118.20;112.03;;;8.90;99.90;;;;;;5030276;28;20049;-73
2024/01/31 04:11:02;;;;;;;114.95;108.95;;;9.00;99.90;;;;;;5054774;28;20034;-73
2024/01/31 04:13:28;;;;;;;108.53;102.93;;;9.10;99.90;;;;;;5030421;28;20052;-72
2024/01/31 04:15:55;;;;;;;108.03;102.45;;;9.30;99.90;;;;;;5031071;28;20030;-72
2024/01/31 04:18:21;;;;;;;118.65;112.57;;;9.20;99.90;;;;;;5031084;28;20041;-72
2024/01/31 04:20:47;;;;;;;130.35;123.43;;;9.10;99.90;;;;;;5030260;28;20429;-73
2024/01/31 04:23:14;;;;;;;128.45;121.70;;;9.00;99.90;;;;;;5031449;28;20049;-73
2024/01/31 04:25:40;;;;;;;116.22;109.90;;;9.10;99.90;;;;;;5031943;28;20056;-73
2024/01/31 04:28:06;;;;;;;125.75;119.18;;;9.00;99.90;;;;;;5033861;28;20029;-73
2024/01/31 04:30:32;;;;;;;120.95;114.70;;;8.90;99.90;;;;;;5034077;28;20029;-73
2024/01/31 04:33:01;;;;;;;115.22;109.07;;;8.90;99.90;;;;;;5034683;28;20040;-73
2024/01/31 04:35:28;;;;;;;102.80;97.40;;;8.90;99.90;;;;;;5034365;28;20030;-73
2024/01/31 04:37:54;;;;;;;98.30;93.15;;;9.00;99.90;;;;;;5034620;28;20040;-73
2024/01/31 04:40:20;;;;;;;98.95;93.55;;;9.00;99.90;;;;;;5066154;28;20053;-73
2024/01/31 04:42:47;;;;;;;214.88;203.57;;;9.10;99.90;;;;;;5034134;28;20462;-73
2024/01/31 04:45:13;;;;;;;104.80;99.05;;;9.00;99.90;;;;;;5032092;28;20041;-73
2024/01/31 04:47:43;;;;;;;104.00;98.55;;;8.80;99.90;;;;;;5034812;28;20366;-73
2024/01/31 04:50:09;;;;;;;105.35;99.70;;;8.70;99.90;;;;;;5033475;28;20041;-73
2024/01/31 04:52:36;;;;;;;95.63;90.43;;;8.60;99.90;;;;;;5034987;28;20041;-72
2024/01/31 04:55:02;;;;;;;85.78;81.15;;;8.60;99.90;;;;;;5033957;28;20033;-70
2024/01/31 04:57:29;;;;;;;113.18;107.30;;;8.60;99.90;;;;;;5034273;28;20045;-73
2024/01/31 04:59:55;;;;;;;112.70;106.72;;;8.80;99.90;;;;;;5033886;28;20076;-72
2024/01/31 05:02:21;;;;;;;95.00;89.85;;;8.90;99.90;;;;;;5032821;28;20040;-72
2024/01/31 05:04:47;;;;;;;96.78;91.65;;;8.90;99.90;;;;;;5034730;28;20056;-73
2024/01/31 05:07:13;;;;;;;101.25;95.25;;;8.90;99.90;;;;;;5027467;28;20037;-72
2024/01/31 05:09:39;;;;;;;90.38;85.25;;;8.90;99.90;;;;;;5015755;28;20038;-72
2024/01/31 05:12:05;;;;;;;97.68;92.45;;;9.00;99.90;;;;;;5031147;28;20029;-72
2024/01/31 05:14:32;;;;;;;116.38;110.20;;;8.80;99.90;;;;;;5030691;28;20034;-73
2024/01/31 05:16:58;;;;;;;109.63;103.88;;;8.70;99.90;;;;;;5033417;28;20030;-73
2024/01/31 05:19:24;;;;;;;119.20;112.80;;;8.70;99.90;;;;;;5034301;28;20466;-73
2024/01/31 05:21:52;;;;;;;116.57;110.32;;;8.80;99.90;;;;;;5033261;28;20038;-72
2024/01/31 05:24:18;;;;;;;122.57;116.15;;;8.90;99.90;;;;;;5033349;28;20057;-72
2024/01/31 05:26:46;;;;;;;135.70;128.50;;;8.90;99.90;;;;;;5033516;28;20040;-72
2024/01/31 05:29:12;;;;;;;129.52;122.68;;;9.00;99.90;;;;;;5034224;28;20034;-72
2024/01/31 05:31:39;;;;;;;157.90;149.35;;;9.00;99.90;;;;;;5033113;28;20038;-72
2024/01/31 05:34:05;;;;;;;148.30;140.63;;;8.90;99.90;;;;;;5033867;28;20037;-72
2024/01/31 05:36:31;;;;;;;139.38;132.10;;;8.90;99.90;;;;;;5033582;28;20040;-72
2024/01/31 05:38:57;;;;;;;128.07;121.38;;;9.00;99.90;;;;;;5033458;28;20390;-73
2024/01/31 05:41:23;;;;;;;120.28;113.95;;;9.00;99.90;;;;;;5031785;28;20049;-73
2024/01/31 05:43:49;;;;;;;158.38;149.88;;;9.10;99.90;;;;;;5033674;28;20482;-73
2024/01/31 05:46:17;;;;;;;195.77;185.63;;;9.00;99.90;;;;;;5033251;28;20045;-72
2024/01/31 05:48:44;;;;;;;155.45;147.43;;;9.00;99.90;;;;;;5032985;28;20055;-73
2024/01/31 05:51:10;;;;;;;189.25;179.15;;;9.10;99.90;;;;;;5014567;28;20026;-72
2024/01/31 05:53:36;;;;;;;163.60;154.93;;;8.90;99.90;;;;;;5032925;28;20437;-73
2024/01/31 05:56:03;;;;;;;138.98;131.30;;;8.80;99.90;;;;;;5032203;28;20375;-73
2024/01/31 05:58:29;;;;;;;126.43;119.53;;;8.80;99.90;;;;;;5032325;28;20033;-73
2024/01/31 06:00:56;;;;;;;111.38;105.55;;;8.90;99.90;;;;;;5032306;28;20049;-73
2024/01/31 06:03:24;;;;;;;145.20;137.70;;;9.00;99.90;;;;;;5033444;28;20034;-72
2024/01/31 06:05:51;;;;;;;111.43;105.47;;;9.10;99.90;;;;;;5033433;28;20057;-73
2024/01/31 06:08:18;;;;;;;149.43;141.70;;;9.10;99.90;;;;;;5033465;28;20382;-73
2024/01/31 06:10:46;;;;;;;171.45;162.27;;;9.20;99.90;;;;;;5032880;28;20049;-73
2024/01/31 06:13:12;;;;;;;181.18;171.45;;;9.20;99.90;;;;;;5033352;28;20037;-73
2024/01/31 06:15:39;;;;;;;159.77;151.38;;;9.10;99.90;;;;;;5032825;28;20482;-73
2024/01/31 06:18:05;;;;;;;116.25;109.90;;;9.10;99.90;;;;;;5033526;28;20022;-73
2024/01/31 06:20:31;;;;;;;205.50;194.55;;;9.20;99.90;;;;;;5033668;28;20041;-73
2024/01/31 06:22:57;;;;;;;165.93;157.20;;;9.20;99.90;;;;;;5033115;28;20037;-73
2024/01/31 06:25:23;;;;;;;165.15;156.55;;;9.30;99.90;;;;;;5033074;28;20064;-73
2024/01/31 06:27:49;;;;;;;175.63;166.15;;;9.30;99.90;;;;;;5033366;28;20029;-72
2024/01/31 06:30:19;;;;;;;166.23;157.20;;;9.30;99.90;;;;;;5032519;28;20041;-72
2024/01/31 06:32:48;;;;;;;189.60;179.55;;;9.30;99.90;;;;;;5031995;28;20028;-72
2024/01/31 06:35:14;;;;;;;174.68;165.52;;;9.30;99.90;;;;;;5032969;28;20032;-72
2024/01/31 06:37:40;;;;;;;129.07;122.25;;;9.30;99.90;;;;;;5032635;28;20033;-72
2024/01/31 06:40:10;;;;;;;186.20;176.38;;;9.30;99.90;;;;;;5032843;28;20053;-72
2024/01/31 06:42:36;;;;;;;219.35;207.27;;;9.10;99.90;;;;;;5031945;28;20249;-73
2024/01/31 06:45:02;;;;;;;222.43;210.43;;;9.20;99.90;;;;;;5031879;28;20041;-72
2024/01/31 06:47:28;;;;;;;287.55;272.05;;;9.30;99.90;;;;;;5032308;28;20030;-72
2024/01/31 06:49:55;;;;;;;245.57;232.27;;;9.30;99.90;;;;;;5032862;28;20418;-72
2024/01/31 06:52:21;;;;;;;243.30;230.10;;;9.30;99.90;;;;;;5032194;28;20036;-73
2024/01/31 06:54:47;;;;;;;284.92;269.38;;;9.40;99.90;;;;;;5032779;28;20033;-72
2024/01/31 06:57:13;;;;;;;271.98;256.92;;;9.40;99.90;;;;;;5032543;28;20033;-72
2024/01/31 06:59:40;;;;;;;235.13;222.48;;;9.40;99.90;;;;;;5032787;28;20037;-73
2024/01/31 07:02:06;;;;;;;212.75;201.38;;;9.40;99.90;;;;;;5031426;28;20041;-72
2024/01/31 07:04:32;;;;;;;218.32;206.48;;;9.40;99.90;;;;;;5030839;28;20060;-72
2024/01/31 07:06:58;;;;;;;222.60;210.73;;;9.40;99.90;;;;;;5030893;28;20040;-72
2024/01/31 07:09:24;;;;;;;173.70;164.20;;;9.40;99.90;;;;;;5032576;28;20394;-72
2024/01/31 07:11:51;;;;;;;165.63;156.85;;;9.40;99.90;;;;;;5032399;28;20041;-73
2024/01/31 07:14:17;;;;;;;163.10;154.27;;;9.40;99.90;;;;;;5032123;28;20041;-72
2024/01/31 07:16:43;;;;;;;165.00;156.25;;;9.40;99.90;;;;;;5031999;28;20034;-73
2024/01/31 07:19:09;;;;;;;176.65;167.50;;;9.40;99.90;;;;;;5032482;28;20033;-73
2024/01/31 07:21:35;;;;;;;196.23;186.05;;;9.40;99.90;;;;;;5031960;28;20030;-73
2024/01/31 07:24:02;;;;;;;148.43;140.65;;;9.40;99.90;;;;;;5032285;28;20033;-73
2024/01/31 07:26:28;;;;;;;234.35;220.73;;;9.40;99.90;;;;;;5031462;28;20413;-72
2024/01/31 07:28:54;;;;;;;152.27;143.75;;;9.40;99.90;;;;;;5032466;28;20029;-73
2024/01/31 07:31:20;;;;;;;164.98;156.18;;;9.20;99.90;;;;;;5030542;28;20406;-73
2024/01/31 07:33:46;;;;;;;190.65;180.30;;;9.00;99.90;;;;;;5032142;28;20049;-72
2024/01/31 07:36:13;;;;;;;207.90;194.80;;;9.10;99.90;;;;;;5032266;28;20045;-73
2024/01/31 07:38:45;;;;;;;210.90;197.52;;;9.30;99.90;;;;;;5032605;28;20037;-71
2024/01/31 07:41:11;;;;;;;212.30;200.50;;;9.30;99.90;;;;;;5032347;28;20060;-72
2024/01/31 07:43:37;;;;;;;262.35;247.85;;;9.30;99.90;;;;;;5030484;28;20037;-72
2024/01/31 07:46:04;;;;;;;289.30;273.13;;;9.30;99.90;;;;;;5029723;28;20076;-72
2024/01/31 07:48:30;;;;;;;302.55;285.08;;;9.30;99.90;;;;;;5031753;28;20037;-75
2024/01/31 07:50:57;;;;;;;326.63;308.38;;;9.30;99.90;;;;;;5030059;28;20033;-72
2024/01/31 07:53:23;;;;;;;310.23;292.88;;;9.40;99.90;;;;;;5030779;28;20034;-72
2024/01/31 07:55:49;;;;;;;305.05;288.08;;;9.50;99.90;;;;;;5019220;28;20485;-72
2024/01/31 07:58:15;;;;;;;316.02;298.55;;;9.50;99.90;;;;;;5030020;28;20041;-74
2024/01/31 08:00:41;;;;;;;326.33;308.38;;;9.60;99.90;;;;;;5025802;28;20040;-73
2024/01/31 08:03:07;;;;;;;264.85;250.00;;;9.60;99.90;;;;;;5020062;28;20136;-73
2024/01/31 08:05:33;;;;;;;335.55;316.90;;;9.60;99.90;;;;;;5015926;28;20065;-74
2024/01/31 08:07:59;;;;;;;349.17;329.83;;;9.60;99.90;;;;;;5028097;28;20025;-73
2024/01/31 08:10:25;;;;;;;340.88;321.73;;;9.60;99.90;;;;;;5017251;28;20033;-73
2024/01/31 08:12:52;;;;;;;341.23;322.20;;;9.60;99.90;;;;;;5030007;28;20036;-73
2024/01/31 08:15:18;;;;;;;308.25;290.83;;;9.60;99.90;;;;;;5035122;28;20033;-73
2024/01/31 08:17:44;;;;;;;214.57;203.15;;;9.60;99.90;;;;;;5035449;28;20037;-72
2024/01/31 08:20:11;;;;;;;297.10;280.85;;;9.60;99.90;;;;;;5033885;28;20038;-73
2024/01/31 08:22:37;;;;;;;174.38;164.90;;;9.60;99.90;;;;;;5015902;28;20030;-73
2024/01/31 08:25:04;;;;;;;197.98;186.90;;;9.70;99.90;;;;;;5015902;28;20030;-73
2024/01/31 08:27:30;;;;;;;262.65;248.05;;;9.70;99.90;;;;;;5033465;28;20048;-73
2024/01/31 08:29:57;;;;;;;222.68;210.35;;;9.70;99.90;;;;;;5022932;28;20056;-73
2024/01/31 08:32:23;;;;;;;201.38;190.20;;;9.50;99.90;;;;;;5032911;28;20040;-73
2024/01/31 08:34:49;;;;;;;196.73;185.23;;;9.50;99.90;;;;;;5035114;28;20030;-73
2024/01/31 08:37:15;;;;;;;234.82;221.90;;;9.50;99.90;;;;;;5032050;28;20085;-76
2024/01/31 08:39:41;;;;;;;208.13;197.05;;;9.50;99.90;;;;;;5019685;28;20042;-73
2024/01/31 08:42:08;;;;;;;153.80;145.63;;;9.60;99.90;;;;;;5017966;28;20481;-72
2024/01/31 08:44:34;;;;;;;156.27;148.05;;;9.70;99.90;;;;;;5027114;28;20030;-72
2024/01/31 08:47:00;;;;;;;328.40;310.55;;;9.80;99.90;;;;;;5021878;28;20038;-72
2024/01/31 08:49:26;;;;;;;127.63;120.82;;;9.90;99.90;;;;;;5015462;28;20037;-71
2024/01/31 08:51:55;;;;;;;282.23;266.75;;;9.90;99.90;;;;;;5030640;28;20029;-74
2024/01/31 08:54:21;;;;;;;309.77;292.98;;;9.90;99.90;;;;;;5033686;28;20501;-73
2024/01/31 08:56:47;;;;;;;326.90;309.00;;;9.90;99.90;;;;;;5023046;28;20034;-71
2024/01/31 08:59:13;;;;;;;336.17;317.58;;;10.00;99.90;;;;;;5020633;28;20037;-71
2024/01/31 09:01:43;;;;;;;267.67;253.27;;;9.90;99.90;;;;;;5028448;28;20049;-72
2024/01/31 09:04:09;;;;;;;228.97;216.70;;;10.00;99.90;;;;;;5034185;28;20042;-72
2024/01/31 09:06:36;;;;;;;181.40;171.75;;;10.00;99.90;;;;;;5025389;28;20293;-72
2024/01/31 09:09:04;;;;;;;172.35;163.18;;;10.00;99.90;;;;;;5032247;28;20467;-72
2024/01/31 09:11:30;;;;;;;331.67;312.98;;;10.00;99.90;;;;;;5032866;28;20045;-76
2024/01/31 09:13:57;;;;;;;367.67;346.50;;;9.90;99.90;;;;;;5032873;28;20021;-77
2024/01/31 09:16:23;;;;;;;186.60;175.70;;;10.00;99.90;;;;;;5031624;28;20056;-74
2024/01/31 09:18:49;;;;;;;160.90;152.20;;;10.10;99.90;;;;;;5034618;28;20466;-74
2024/01/31 09:21:22;;;;;;;160.85;152.32;;;9.90;99.90;;;;;;5032668;28;20041;-74
2024/01/31 09:23:49;;;;;;;165.68;156.18;;;9.90;99.90;;;;;;5032656;28;20406;-74
2024/01/31 09:26:16;;;;;;;167.15;158.27;;;9.90;99.90;;;;;;5033600;28;20049;-74
2024/01/31 09:28:42;;;;;;;178.45;168.88;;;9.70;99.90;;;;;;5033445;28;20033;-74
2024/01/31 09:31:08;;;;;;;167.35;158.35;;;9.60;99.90;;;;;;5032392;28;20048;-73
2024/01/31 09:33:34;;;;;;;144.88;136.55;;;9.60;99.90;;;;;;5034453;28;20040;-73
2024/01/31 09:36:00;;;;;;;185.88;175.95;;;9.70;99.90;;;;;;5033768;28;20378;-74
2024/01/31 09:38:26;;;;;;;196.43;185.70;;;9.90;99.90;;;;;;5034321;28;20033;-73
2024/01/31 09:40:52;;;;;;;121.88;115.35;;;10.00;99.90;;;;;;5033779;28;20042;-74
2024/01/31 09:43:19;;;;;;;170.85;161.77;;;10.00;99.90;;;;;;5034146;28;20029;-74
2024/01/31 09:45:47;;;;;;;130.35;123.15;;;9.90;99.90;;;;;;5028076;28;20045;-73
2024/01/31 09:48:13;;;;;;;121.05;114.65;;;9.90;99.90;;;;;;5032596;28;20487;-74
2024/01/31 09:50:40;;;;;;;117.80;111.28;;;9.80;99.90;;;;;;5033655;28;20478;-74
2024/01/31 09:53:06;;;;;;;171.40;161.75;;;9.70;99.90;;;;;;5032613;28;20039;-74
2024/01/31 09:55:34;;;;;;;127.95;121.22;;;9.80;99.90;;;;;;5032348;28;20029;-74
2024/01/31 09:58:01;;;;;;;154.45;146.05;;;10.00;99.90;;;;;;5033873;28;20366;-74
2024/01/31 10:00:27;;;;;;;128.88;121.75;;;10.10;99.90;;;;;;5031232;28;20132;-73
2024/01/31 10:02:53;;;;;;;109.22;103.32;;;10.20;99.90;;;;;;5019408;28;20042;-74
2024/01/31 10:05:19;;;;;;;120.85;113.70;;;10.20;99.90;;;;;;5014652;28;20033;-74
2024/01/31 10:07:45;;;;;;;170.95;161.55;;;10.40;99.90;;;;;;5033160;28;20029;-73
2024/01/31 10:10:11;;;;;;;179.80;170.25;;;10.50;99.90;;;;;;5031017;28;20045;-74
2024/01/31 10:12:40;;;;;;;189.07;178.60;;;10.60;99.90;;;;;;5032344;28;20041;-75
2024/01/31 10:15:09;;;;;;;183.40;173.02;;;10.70;99.90;;;;;;5030773;28;20034;-75
2024/01/31 10:17:35;;;;;;;153.40;145.00;;;10.70;99.90;;;;;;5033330;28;20037;-75
2024/01/31 10:20:07;;;;;;;626.92;370.10;;;10.80;99.90;;;;;;5021482;28;20026;-78
2024/01/31 10:22:36;;;;;;;627.28;370.15;;;11.00;99.90;;;;;;5030215;28;20029;-76
2024/01/31 10:25:06;;;;;;;1999.90;999.90;;;11.20;99.90;;;;;;5032080;28;20386;-76
2024/01/31 10:27:38;;;;;;;1999.90;999.90;;;11.30;99.90;;;;;;5029079;28;20029;-76
2024/01/31 10:30:08;;;;;;;1999.90;999.90;;;11.50;99.90;;;;;;5031762;28;20033;-75
2024/01/31 10:32:35;;;;;;;1999.90;999.90;;;11.70;99.90;;;;;;5032287;28;20033;-75
2024/01/31 10:35:01;;;;;;;1999.90;999.90;;;11.70;99.90;;;;;;5030613;28;20394;-76
2024/01/31 10:37:28;;;;;;;1999.90;999.90;;;11.40;99.90;;;;;;5020691;28;20038;-76
2024/01/31 10:39:54;;;;;;;1999.90;999.90;;;11.70;99.90;;;;;;5012136;28;20049;-75
2024/01/31 10:42:20;;;;;;;1999.90;999.90;;;11.90;99.90;;;;;;5029596;28;20387;-76
2024/01/31 10:44:46;;;;;;;1999.90;999.90;;;12.10;99.90;;;;;;5013411;28;20033;-76
2024/01/31 10:47:12;;;;;;;1999.90;999.90;;;12.20;99.90;;;;;;5030534;28;20050;-76
2024/01/31 10:49:38;;;;;;;1999.90;999.90;;;12.30;99.90;;;;;;5031707;28;20041;-76
2024/01/31 10:52:05;;;;;;;1999.90;999.90;;;12.40;99.90;;;;;;5027542;28;20045;-76
2024/01/31 10:54:33;;;;;;;1999.90;999.90;;;12.20;99.90;;;;;;5031438;28;20029;-76
2024/01/31 10:56:59;;;;;;;1999.90;999.90;;;11.90;99.90;;;;;;5030907;28;20056;-76
2024/01/31 10:59:25;;;;;;;1999.90;999.90;;;11.70;99.90;;;;;;5014222;28;20056;-75
2024/01/31 11:01:55;;;;;;;1999.90;999.90;;;11.90;99.90;;;;;;5031106;28;20060;-76
2024/01/31 11:04:21;;;;;;;1999.90;999.90;;;12.00;99.90;;;;;;5031616;28;20033;-76
2024/01/31 11:06:51;;;;;;;1999.90;999.90;;;11.70;99.90;;;;;;5032190;28;20060;-76
2024/01/31 11:09:26;;;;;;;1999.90;999.90;;;11.80;99.90;;;;;;5032236;28;20033;-75
2024/01/31 11:12:02;;;;;;;1999.90;999.90;;;12.10;99.90;;;;;;5030216;28;20041;-75
2024/01/31 11:14:29;;;;;;;1999.90;999.90;;;12.20;99.90;;;;;;5032741;28;20033;-76
2024/01/31 11:17:18;;;;;;;1999.90;999.90;;;12.40;99.90;;;;;;5031302;28;20030;-75
2024/01/31 11:19:51;;;;;;;1999.90;999.90;;;12.50;99.90;;;;;;5032610;28;20029;-76
2024/01/31 11:22:17;;;;;;;1999.90;999.90;;;12.60;99.90;;;;;;5032410;28;20044;-75
2024/01/31 11:24:51;;;;;;;1999.90;999.90;;;12.40;99.90;;;;;;5032464;28;20033;-74
2024/01/31 11:27:18;;;;;;;1999.90;999.90;;;12.50;99.90;;;;;;5030567;28;20044;-75
2024/01/31 11:29:51;;;;;;;1999.90;999.90;;;12.70;99.90;;;;;;5031966;28;20041;-75
2024/01/31 11:32:18;;;;;;;1999.90;999.90;;;13.10;99.90;;;;;;5030728;28;20048;-75
2024/01/31 11:34:44;;;;;;;1999.90;999.90;;;13.40;99.90;;;;;;5030407;28;20025;-73
2024/01/31 11:37:10;;;;;;;1999.90;999.90;;;13.50;99.90;;;;;;5031266;28;20044;-76
2024/01/31 11:39:36;;;;;;;1999.90;999.90;;;13.70;99.90;;;;;;5030646;28;20029;-75
2024/01/31 11:42:05;;;;;;;1999.90;999.90;;;13.70;99.90;;;;;;5031028;28;20049;-77
2024/01/31 11:44:31;;;;;;;1999.90;999.90;;;14.00;99.90;;;;;;5030504;28;20040;-74
2024/01/31 11:46:57;;;;;;;1999.90;999.90;;;13.70;99.90;;;;;;5029379;28;20044;-75
2024/01/31 11:49:23;;;;;;;1999.90;999.90;;;13.60;99.90;;;;;;5031766;28;20041;-74
2024/01/31 11:51:49;;;;;;;1999.90;999.90;;;13.90;99.90;;;;;;5031680;28;20025;-74
2024/01/31 11:54:16;;;;;;;1999.90;999.90;;;13.80;99.90;;;;;;5031729;28;20458;-74
2024/01/31 11:56:42;;;;;;;1999.90;999.90;;;13.50;99.90;;;;;;5030498;28;20044;-75
2024/01/31 11:59:08;;;;;;;1999.90;999.90;;;13.50;99.90;;;;;;5031498;28;20056;-74
2024/01/31 12:01:34;;;;;;;1999.90;999.90;;;13.40;99.90;;;;;;5031175;28;20471;-74
2024/01/31 12:04:02;;;;;;;1999.90;999.90;;;13.60;99.90;;;;;;5031483;28;20029;-74
2024/01/31 12:06:28;;;;;;;1999.90;999.90;;;13.70;99.90;;;;;;5030459;28;20410;-74
2024/01/31 12:08:54;;;;;;;1999.90;999.90;;;13.60;99.90;;;;;;5030401;28;20034;-74
2024/01/31 12:11:20;;;;;;;1999.90;999.90;;;13.70;99.90;;;;;;5013044;28;20397;-74
2024/01/31 12:13:46;;;;;;;1999.90;999.90;;;14.00;99.90;;;;;;5030163;28;20045;-74